Time;durP1;ratioP1;P1;durP2;ratioP2;P2;SDS_P1;SDS_P2;PMS_P1;PMS_P2;Temp;Humidity;BMP_temperature;BMP_pressure;BME280_temperature;BME280_humidity;BME280_pressure;Samples;Min_cycle;Max_cycle;Signal;HPM_P1;HPM_P2
2021/04/24 00:02:03;;;;;;;6.03;4.50;;;19.40;52.60;;;;;;5164592;27;20458;-35
2021/04/24 00:04:33;;;;;;;7.13;4.67;;;19.50;52.30;;;;;;5164858;27;20422;-38
2021/04/24 00:07:03;;;;;;;6.63;4.53;;;19.30;51.90;;;;;;5164698;27;20422;-37
2021/04/24 00:09:33;;;;;;;8.53;4.57;;;19.20;52.70;;;;;;5164980;27;20418;-38
2021/04/24 00:12:04;;;;;;;5.13;4.10;;;19.10;53.80;;;;;;5164087;27;20524;-34
2021/04/24 00:14:34;;;;;;;4.40;3.63;;;19.20;53.70;;;;;;5152379;27;20411;-38
2021/04/24 00:17:05;;;;;;;5.20;3.50;;;19.10;54.30;;;;;;5143891;28;20761;-37
2021/04/24 00:19:36;;;;;;;6.27;3.80;;;19.10;53.50;;;;;;5143853;28;20419;-36
2021/04/24 00:22:06;;;;;;;5.70;4.60;;;19.00;54.30;;;;;;5143775;28;20495;-36
2021/04/24 00:24:36;;;;;;;5.43;4.10;;;18.90;54.20;;;;;;5144026;28;20415;-38
2021/04/24 00:27:06;;;;;;;8.50;4.00;;;18.80;55.50;;;;;;5143211;28;20508;-37
2021/04/24 00:29:36;;;;;;;8.30;4.87;;;18.40;56.40;;;;;;5145911;27;20445;-36
2021/04/24 00:32:08;;;;;;;8.17;3.90;;;18.40;56.60;;;;;;5147844;27;20453;-35
2021/04/24 00:34:39;;;;;;;5.27;4.07;;;18.40;57.40;;;;;;5148114;27;20440;-36
2021/04/24 00:37:09;;;;;;;4.73;3.70;;;18.40;57.40;;;;;;5147669;27;20441;-37
2021/04/24 00:39:39;;;;;;;7.40;4.10;;;18.50;57.00;;;;;;5147455;27;20426;-34
2021/04/24 00:42:09;;;;;;;5.90;4.37;;;18.40;56.30;;;;;;5146556;27;20587;-37
2021/04/24 00:44:46;;;;;;;8.00;4.23;;;18.40;56.60;;;;;;5168021;27;20811;-37
2021/04/24 00:47:35;;;;;;;6.10;4.20;;;18.30;57.20;;;;;;5168515;27;20428;-36
2021/04/24 00:50:08;;;;;;;5.80;4.17;;;18.30;56.20;;;;;;5167989;27;20418;-35
2021/04/24 00:52:38;;;;;;;7.17;4.20;;;18.40;55.20;;;;;;5168166;27;20786;-37
2021/04/24 00:55:09;;;;;;;8.13;4.27;;;18.30;56.00;;;;;;5168198;27;20454;-35
2021/04/24 00:57:40;;;;;;;8.57;4.47;;;18.30;56.70;;;;;;5167246;27;20461;-35
2021/04/24 01:00:13;;;;;;;5.23;4.17;;;18.40;56.50;;;;;;5168396;27;20464;-38
2021/04/24 01:02:44;;;;;;;8.43;3.90;;;18.20;56.80;;;;;;5167925;27;20494;-38
2021/04/24 01:05:19;;;;;;;6.00;4.00;;;18.00;56.70;;;;;;5168208;27;20539;-37
2021/04/24 01:07:50;;;;;;;6.40;3.70;;;18.10;56.40;;;;;;5167652;27;20811;-35
2021/04/24 01:10:22;;;;;;;5.33;4.07;;;18.10;56.10;;;;;;5168171;27;20459;-38
2021/04/24 01:12:53;;;;;;;5.90;4.00;;;18.00;55.80;;;;;;5166807;27;20474;-35
2021/04/24 01:15:23;;;;;;;6.07;3.93;;;18.00;55.20;;;;;;5148431;27;20441;-33
2021/04/24 01:17:54;;;;;;;6.70;4.70;;;17.80;56.00;;;;;;5146879;27;20478;-34
2021/04/24 01:20:24;;;;;;;6.90;3.97;;;17.70;56.60;;;;;;5147061;27;20445;-37
2021/04/24 01:22:56;;;;;;;7.37;4.20;;;17.70;56.90;;;;;;5146529;27;20491;-35
2021/04/24 01:25:30;;;;;;;8.77;4.33;;;17.60;56.70;;;;;;5146586;27;20457;-37
2021/04/24 01:28:02;;;;;;;6.70;4.00;;;17.80;56.60;;;;;;5146169;27;20516;-37
2021/04/24 01:30:34;;;;;;;5.67;4.10;;;17.70;57.40;;;;;;5147154;27;20493;-37
2021/04/24 01:33:07;;;;;;;7.67;5.17;;;17.70;57.70;;;;;;5146708;27;20512;-35
2021/04/24 01:35:38;;;;;;;6.90;4.10;;;17.60;57.70;;;;;;5146779;27;20551;-36
2021/04/24 01:38:10;;;;;;;10.03;4.60;;;17.50;57.30;;;;;;5146431;27;20756;-37
2021/04/24 01:40:41;;;;;;;7.07;4.30;;;17.50;57.70;;;;;;5146351;27;20557;-37
2021/04/24 01:43:12;;;;;;;7.20;3.93;;;17.50;58.70;;;;;;5154547;27;20514;-35
2021/04/24 01:46:01;;;;;;;4.93;3.80;;;17.30;58.80;;;;;;5167781;27;20436;-36
2021/04/24 01:48:31;;;;;;;4.17;3.73;;;17.50;58.50;;;;;;5166864;27;20444;-37
2021/04/24 01:51:01;;;;;;;6.43;4.43;;;17.50;58.80;;;;;;5167403;27;20444;-34
2021/04/24 01:53:32;;;;;;;5.60;4.00;;;17.40;59.40;;;;;;5167117;27;20415;-38
2021/04/24 01:56:02;;;;;;;8.10;4.00;;;17.40;59.60;;;;;;5166845;27;20519;-37
2021/04/24 01:58:33;;;;;;;8.70;4.77;;;17.40;59.80;;;;;;5166286;27;20449;-37
2021/04/24 02:01:06;;;;;;;6.67;4.47;;;17.40;60.30;;;;;;5167193;27;20421;-35
2021/04/24 02:03:36;;;;;;;10.07;5.10;;;17.40;60.10;;;;;;5166724;27;20484;-35
2021/04/24 02:06:07;;;;;;;5.83;4.57;;;17.40;60.90;;;;;;5166738;27;20447;-37
2021/04/24 02:08:40;;;;;;;6.30;4.40;;;17.30;60.90;;;;;;5166712;27;20819;-31
2021/04/24 02:11:11;;;;;;;12.13;5.17;;;17.30;60.60;;;;;;5166736;27;20469;-34
2021/04/24 02:13:43;;;;;;;7.20;4.33;;;17.30;63.20;;;;;;5160462;27;20932;-36
2021/04/24 02:16:15;;;;;;;4.83;4.30;;;17.20;63.40;;;;;;5145925;27;20440;-37
2021/04/24 02:18:45;;;;;;;10.80;5.30;;;17.00;61.90;;;;;;5145935;27;20444;-37
2021/04/24 02:21:16;;;;;;;8.13;5.17;;;17.00;63.60;;;;;;5145869;27;20464;-35
2021/04/24 02:23:47;;;;;;;8.23;4.47;;;16.90;64.60;;;;;;5145481;27;20514;-33
2021/04/24 02:26:18;;;;;;;5.27;4.77;;;16.80;65.70;;;;;;5145568;27;20879;-37
2021/04/24 02:28:48;;;;;;;7.30;5.43;;;16.80;67.60;;;;;;5145950;27;20448;-34
2021/04/24 02:31:18;;;;;;;9.30;4.80;;;16.70;68.20;;;;;;5145527;27;20415;-35
2021/04/24 02:33:48;;;;;;;7.80;5.37;;;16.60;69.30;;;;;;5145744;27;20449;-34
2021/04/24 02:36:19;;;;;;;7.47;5.53;;;16.60;70.40;;;;;;5145352;27;20526;-37
2021/04/24 02:38:53;;;;;;;8.53;5.30;;;16.60;71.10;;;;;;5145277;27;20445;-37
2021/04/24 02:41:23;;;;;;;11.00;5.83;;;16.70;71.00;;;;;;5144346;27;20445;-38
2021/04/24 02:43:53;;;;;;;6.50;4.83;;;16.40;72.40;;;;;;5160216;27;20487;-37
2021/04/24 02:46:23;;;;;;;7.00;5.97;;;16.30;73.10;;;;;;5165686;27;20443;-38
2021/04/24 02:48:53;;;;;;;9.40;6.10;;;16.30;73.60;;;;;;5165686;27;20500;-36
2021/04/24 02:51:23;;;;;;;8.63;5.07;;;16.20;75.40;;;;;;5164758;27;20477;-33
2021/04/24 02:53:54;;;;;;;10.87;5.70;;;16.00;75.90;;;;;;5165731;27;20448;-37
2021/04/24 02:56:24;;;;;;;10.40;5.43;;;16.00;76.60;;;;;;5164253;27;20447;-33
2021/04/24 02:58:54;;;;;;;9.87;5.00;;;16.00;76.60;;;;;;5165984;27;20450;-36
2021/04/24 03:01:24;;;;;;;6.60;5.10;;;15.80;78.00;;;;;;5165027;27;21107;-38
2021/04/24 03:03:55;;;;;;;7.93;4.80;;;15.80;78.10;;;;;;5165496;27;20511;-36
2021/04/24 03:06:25;;;;;;;8.03;5.17;;;15.70;79.10;;;;;;5165244;27;20469;-35
2021/04/24 03:08:56;;;;;;;8.53;4.77;;;15.70;80.40;;;;;;5165519;27;20448;-35
2021/04/24 03:11:28;;;;;;;9.77;5.43;;;15.60;81.80;;;;;;5164397;27;20444;-35
2021/04/24 03:13:58;;;;;;;13.07;6.17;;;15.50;82.90;;;;;;5157865;27;20444;-36
2021/04/24 03:16:28;;;;;;;8.30;5.10;;;15.50;83.10;;;;;;5144234;27;20502;-38
2021/04/24 03:18:59;;;;;;;12.43;5.50;;;15.40;83.60;;;;;;5144931;27;20785;-33
2021/04/24 03:21:29;;;;;;;6.93;6.00;;;15.40;84.10;;;;;;5144265;27;20445;-37
2021/04/24 03:24:01;;;;;;;10.77;5.50;;;15.40;85.00;;;;;;5144491;27;20477;-37
2021/04/24 03:26:31;;;;;;;7.87;4.80;;;15.30;85.30;;;;;;5143604;27;20437;-35
2021/04/24 03:29:01;;;;;;;9.10;5.40;;;15.30;85.30;;;;;;5144834;27;20497;-37
2021/04/24 03:31:31;;;;;;;7.40;5.00;;;15.20;85.90;;;;;;5143900;27;20456;-38
2021/04/24 03:34:01;;;;;;;8.43;5.10;;;15.20;86.70;;;;;;5144561;27;20514;-37
2021/04/24 03:36:32;;;;;;;11.97;4.83;;;15.20;87.20;;;;;;5144033;27;20464;-36
2021/04/24 03:39:04;;;;;;;9.30;4.97;;;15.10;87.90;;;;;;5144452;27;20425;-34
2021/04/24 03:41:34;;;;;;;9.83;5.13;;;15.10;88.40;;;;;;5143233;27;20509;-32
2021/04/24 03:44:05;;;;;;;8.63;5.80;;;15.10;89.60;;;;;;5160347;27;20483;-37
2021/04/24 03:46:35;;;;;;;10.17;5.67;;;15.00;90.40;;;;;;5164662;27;20462;-35
2021/04/24 03:49:05;;;;;;;7.03;4.80;;;14.90;91.40;;;;;;5165251;27;20473;-35
2021/04/24 03:51:35;;;;;;;9.50;6.00;;;14.90;91.10;;;;;;5164680;27;20444;-33
2021/04/24 03:54:08;;;;;;;10.30;5.93;;;14.90;91.40;;;;;;5165260;27;20428;-36
2021/04/24 03:56:38;;;;;;;7.37;4.63;;;15.00;91.60;;;;;;5164108;27;20900;-35
2021/04/24 03:59:08;;;;;;;11.80;5.93;;;14.90;92.10;;;;;;5164942;27;20450;-34
2021/04/24 04:01:38;;;;;;;10.03;5.60;;;14.90;91.90;;;;;;5164565;27;20945;-37
2021/04/24 04:04:08;;;;;;;8.43;5.83;;;14.80;92.50;;;;;;5165998;27;20506;-36
2021/04/24 04:06:38;;;;;;;11.33;5.60;;;14.70;93.10;;;;;;5168567;27;20466;-38
2021/04/24 04:09:09;;;;;;;9.13;5.40;;;14.70;93.30;;;;;;5169216;27;20496;-35
2021/04/24 04:11:39;;;;;;;6.80;5.10;;;14.60;93.60;;;;;;5167930;27;20448;-37
2021/04/24 04:14:09;;;;;;;8.53;5.63;;;14.60;93.60;;;;;;5159531;27;20512;-37
2021/04/24 04:16:39;;;;;;;6.50;5.00;;;14.60;94.40;;;;;;5147677;27;20493;-34
2021/04/24 04:19:09;;;;;;;10.07;5.40;;;14.40;94.70;;;;;;5147985;27;20440;-37
2021/04/24 04:21:40;;;;;;;8.13;5.67;;;14.40;95.70;;;;;;5147364;27;20444;-35
2021/04/24 04:24:12;;;;;;;11.93;6.63;;;14.30;96.40;;;;;;5147951;27;20488;-37
2021/04/24 04:26:42;;;;;;;9.07;5.90;;;14.30;97.40;;;;;;5146829;27;20480;-34
2021/04/24 04:29:12;;;;;;;8.80;5.30;;;14.20;98.00;;;;;;5147865;27;20493;-30
2021/04/24 04:31:42;;;;;;;8.00;5.20;;;14.10;98.80;;;;;;5147175;27;20470;-36
2021/04/24 04:34:12;;;;;;;6.40;4.90;;;14.10;99.20;;;;;;5147954;27;20464;-35
2021/04/24 04:36:42;;;;;;;8.33;6.60;;;14.10;99.00;;;;;;5147569;27;20475;-38
2021/04/24 04:39:13;;;;;;;12.70;6.73;;;14.10;99.90;;;;;;5147833;27;20462;-34
2021/04/24 04:41:43;;;;;;;10.03;6.87;;;14.00;99.90;;;;;;5146393;27;20453;-36
2021/04/24 04:44:14;;;;;;;9.73;6.60;;;14.00;99.90;;;;;;5164996;27;20567;-35
2021/04/24 04:46:44;;;;;;;10.73;7.03;;;13.80;99.90;;;;;;5168102;27;20447;-37
2021/04/24 04:49:14;;;;;;;8.57;6.30;;;13.80;99.90;;;;;;5168468;27;20440;-38
2021/04/24 04:51:44;;;;;;;11.93;7.17;;;13.80;99.90;;;;;;5167735;27;20515;-37
2021/04/24 04:54:15;;;;;;;10.13;6.23;;;13.70;99.90;;;;;;5168449;27;20439;-36
2021/04/24 04:56:45;;;;;;;10.63;7.13;;;13.70;99.90;;;;;;5166916;27;20440;-36
2021/04/24 04:59:15;;;;;;;13.17;7.53;;;13.80;99.90;;;;;;5167962;27;20443;-36
2021/04/24 05:01:45;;;;;;;10.33;6.60;;;13.80;99.90;;;;;;5167705;27;20467;-33
2021/04/24 05:04:33;;;;;;;9.27;6.80;;;13.80;99.90;;;;;;5167963;27;20519;-34
2021/04/24 05:07:03;;;;;;;8.43;7.23;;;13.80;99.90;;;;;;5167483;27;20424;-36
2021/04/24 05:09:39;;;;;;;10.77;6.60;;;13.80;99.90;;;;;;5168091;27;20499;-35
2021/04/24 05:12:09;;;;;;;9.53;7.17;;;13.90;99.90;;;;;;5166737;27;20450;-34
2021/04/24 05:14:39;;;;;;;14.30;7.50;;;13.80;99.90;;;;;;5153691;27;20437;-37
2021/04/24 05:17:10;;;;;;;14.70;9.90;;;13.80;99.90;;;;;;5146652;27;20452;-34
2021/04/24 05:19:40;;;;;;;14.73;8.23;;;13.90;99.90;;;;;;5146805;27;20600;-35
2021/04/24 05:22:14;;;;;;;12.60;9.70;;;13.70;99.90;;;;;;5146325;27;20445;-33
2021/04/24 05:24:45;;;;;;;13.03;9.57;;;13.70;99.90;;;;;;5146869;27;20438;-35
2021/04/24 05:27:15;;;;;;;10.47;7.53;;;13.80;99.90;;;;;;5145757;27;20455;-37
2021/04/24 05:29:45;;;;;;;9.67;7.70;;;13.80;99.90;;;;;;5146772;27;20449;-37
2021/04/24 05:32:15;;;;;;;9.17;6.67;;;13.80;99.90;;;;;;5146118;27;20536;-36
2021/04/24 05:34:47;;;;;;;11.50;6.40;;;13.70;99.90;;;;;;5146740;27;20564;-36
2021/04/24 05:37:17;;;;;;;10.40;7.30;;;13.60;99.90;;;;;;5146699;27;20449;-37
2021/04/24 05:39:48;;;;;;;11.83;8.80;;;13.60;99.90;;;;;;5146882;27;20521;-34
2021/04/24 05:42:18;;;;;;;8.27;6.90;;;13.50;99.90;;;;;;5146297;27;20486;-34
2021/04/24 05:44:48;;;;;;;12.43;9.20;;;13.50;99.90;;;;;;5167087;27;20471;-35
2021/04/24 05:47:18;;;;;;;10.27;8.83;;;13.60;99.90;;;;;;5166780;27;20443;-37
2021/04/24 05:49:51;;;;;;;10.33;7.67;;;13.60;99.90;;;;;;5167175;27;20448;-38
2021/04/24 05:52:21;;;;;;;8.43;7.60;;;13.50;99.90;;;;;;5166771;27;20443;-37
2021/04/24 05:54:52;;;;;;;10.50;6.60;;;13.50;99.90;;;;;;5167112;27;20468;-38
2021/04/24 05:57:22;;;;;;;10.13;7.10;;;13.30;99.90;;;;;;5165692;27;20444;-38
2021/04/24 05:59:52;;;;;;;12.30;8.10;;;13.30;99.90;;;;;;5166917;27;20440;-36
2021/04/24 06:02:22;;;;;;;10.13;6.50;;;13.20;99.90;;;;;;5166314;27;20440;-35
2021/04/24 06:04:53;;;;;;;11.50;6.53;;;13.20;99.90;;;;;;5166836;27;20424;-37
2021/04/24 06:07:23;;;;;;;9.33;6.00;;;13.20;99.90;;;;;;5166766;27;20444;-34
2021/04/24 06:09:54;;;;;;;9.53;7.20;;;13.20;99.90;;;;;;5166665;27;20444;-36
2021/04/24 06:12:24;;;;;;;9.20;6.73;;;13.10;99.90;;;;;;5165616;27;20535;-35
2021/04/24 06:14:56;;;;;;;10.47;6.83;;;13.10;99.90;;;;;;5150969;27;20466;-33
2021/04/24 06:17:26;;;;;;;9.07;5.70;;;13.10;99.90;;;;;;5145583;27;20441;-35
2021/04/24 06:19:59;;;;;;;6.67;5.43;;;13.10;99.90;;;;;;5145734;27;20463;-31
2021/04/24 06:22:29;;;;;;;7.23;5.57;;;13.10;99.90;;;;;;5145202;27;20439;-36
2021/04/24 06:25:00;;;;;;;6.83;5.30;;;13.10;99.90;;;;;;5145471;27;20456;-36
2021/04/24 06:27:30;;;;;;;12.60;5.23;;;13.00;99.90;;;;;;5143809;27;20464;-37
2021/04/24 06:30:00;;;;;;;9.40;5.57;;;12.90;99.90;;;;;;5145524;27;20455;-34
2021/04/24 06:32:33;;;;;;;8.93;5.20;;;12.90;99.90;;;;;;5145187;27;20588;-31
2021/04/24 06:35:04;;;;;;;10.93;6.33;;;12.90;99.90;;;;;;5145251;27;20524;-33
2021/04/24 06:37:34;;;;;;;10.40;6.97;;;13.00;99.90;;;;;;5145558;27;20482;-37
2021/04/24 06:40:06;;;;;;;8.00;5.57;;;12.90;99.90;;;;;;5145250;27;20474;-39
2021/04/24 06:42:37;;;;;;;12.77;6.93;;;12.80;99.90;;;;;;5147889;27;20485;-35
2021/04/24 06:45:09;;;;;;;10.80;5.23;;;12.80;99.90;;;;;;5165653;27;20492;-32
2021/04/24 06:47:39;;;;;;;9.13;5.67;;;12.70;99.90;;;;;;5165642;27;20465;-33
2021/04/24 06:50:12;;;;;;;11.33;6.30;;;12.70;99.90;;;;;;5166032;27;20492;-36
2021/04/24 06:52:42;;;;;;;11.00;5.97;;;12.70;99.90;;;;;;5165511;27;20428;-34
2021/04/24 06:55:16;;;;;;;11.20;5.50;;;12.70;99.90;;;;;;5165474;27;20454;-35
2021/04/24 06:57:47;;;;;;;9.37;5.27;;;12.70;99.90;;;;;;5164933;27;20503;-36
2021/04/24 07:00:18;;;;;;;8.27;5.43;;;12.70;99.90;;;;;;5165567;27;20444;-38
2021/04/24 07:02:48;;;;;;;8.47;5.77;;;12.60;99.90;;;;;;5164989;27;20468;-37
2021/04/24 07:05:19;;;;;;;11.27;8.40;;;12.50;99.90;;;;;;5166015;27;20467;-35
2021/04/24 07:07:49;;;;;;;10.07;8.50;;;12.50;99.90;;;;;;5165332;27;20465;-36
2021/04/24 07:10:20;;;;;;;9.70;7.00;;;12.60;99.90;;;;;;5165733;27;20465;-34
2021/04/24 07:12:50;;;;;;;9.23;7.23;;;12.60;99.90;;;;;;5164446;27;20904;-38
2021/04/24 07:15:20;;;;;;;10.20;5.90;;;12.70;99.90;;;;;;5146255;27;20502;-37
2021/04/24 07:17:50;;;;;;;7.13;5.83;;;12.60;99.90;;;;;;5144468;27;20429;-34
2021/04/24 07:20:20;;;;;;;11.00;5.90;;;12.60;99.90;;;;;;5144861;27;20436;-32
2021/04/24 07:22:51;;;;;;;11.40;6.47;;;12.70;99.90;;;;;;5144068;27;20852;-31
2021/04/24 07:25:22;;;;;;;8.57;5.70;;;12.70;99.90;;;;;;5144351;27;20536;-35
2021/04/24 07:27:52;;;;;;;13.30;5.87;;;12.70;99.90;;;;;;5143616;27;20470;-36
2021/04/24 07:30:23;;;;;;;8.90;5.40;;;12.70;99.90;;;;;;5144665;27;20467;-36
2021/04/24 07:32:53;;;;;;;7.50;5.80;;;12.70;99.90;;;;;;5144067;27;20445;-35
2021/04/24 07:35:23;;;;;;;12.23;6.60;;;12.70;99.90;;;;;;5144462;27;20448;-35
2021/04/24 07:37:54;;;;;;;6.30;4.93;;;12.70;99.90;;;;;;5143830;27;20456;-37
2021/04/24 07:40:25;;;;;;;11.57;6.30;;;12.70;99.90;;;;;;5144361;27;20445;-33
2021/04/24 07:42:55;;;;;;;13.00;7.30;;;12.80;99.90;;;;;;5149396;27;20479;-35
2021/04/24 07:45:26;;;;;;;9.10;6.00;;;12.80;99.90;;;;;;5165088;27;20756;-36
2021/04/24 07:47:56;;;;;;;11.97;5.63;;;12.70;99.90;;;;;;5165319;27;20436;-36
2021/04/24 07:50:26;;;;;;;11.30;6.30;;;12.60;99.90;;;;;;5165270;27;20468;-36
2021/04/24 07:52:56;;;;;;;12.63;5.53;;;12.70;99.90;;;;;;5164971;27;20487;-35
2021/04/24 07:55:28;;;;;;;9.10;5.00;;;12.70;99.90;;;;;;5164418;27;20548;-37
2021/04/24 07:57:58;;;;;;;7.67;5.00;;;12.70;99.90;;;;;;5163950;27;20435;-37
2021/04/24 08:00:28;;;;;;;10.60;5.60;;;12.60;99.90;;;;;;5164596;27;20501;-36
2021/04/24 08:02:59;;;;;;;7.33;4.83;;;12.60;99.90;;;;;;5165083;27;20499;-34
2021/04/24 08:05:29;;;;;;;6.00;4.63;;;12.60;99.90;;;;;;5164591;27;20504;-36
2021/04/24 08:08:01;;;;;;;10.10;5.53;;;12.60;99.90;;;;;;5164478;27;20448;-36
2021/04/24 08:10:32;;;;;;;10.27;5.17;;;12.60;99.90;;;;;;5164816;27;20447;-35
2021/04/24 08:13:03;;;;;;;11.43;6.13;;;12.50;99.90;;;;;;5163871;27;20488;-36
2021/04/24 08:15:34;;;;;;;11.00;4.87;;;12.60;99.90;;;;;;5164441;27;20879;-33
2021/04/24 08:18:04;;;;;;;6.17;4.90;;;12.50;99.90;;;;;;5164587;27;20436;-33
2021/04/24 08:20:34;;;;;;;8.90;4.83;;;12.50;99.90;;;;;;5164581;27;20492;-36
2021/04/24 08:23:05;;;;;;;8.33;4.60;;;12.40;99.90;;;;;;5164436;27;20886;-35
2021/04/24 08:25:36;;;;;;;7.90;4.30;;;12.60;99.90;;;;;;5164126;27;20448;-35
2021/04/24 08:28:06;;;;;;;13.17;4.50;;;12.60;99.90;;;;;;5163742;27;20500;-33
2021/04/24 08:30:36;;;;;;;9.97;5.40;;;12.50;99.90;;;;;;5164498;27;20568;-38
2021/04/24 08:33:08;;;;;;;6.70;5.07;;;12.50;99.90;;;;;;5164311;27;20480;-35
2021/04/24 08:35:39;;;;;;;10.80;5.50;;;12.60;99.90;;;;;;5164869;27;20488;-35
2021/04/24 08:38:09;;;;;;;9.77;5.47;;;12.50;99.90;;;;;;5164342;27;20528;-37
2021/04/24 08:40:40;;;;;;;7.50;5.10;;;12.50;99.90;;;;;;5164901;27;20444;-36
2021/04/24 08:43:11;;;;;;;8.10;5.10;;;12.50;99.90;;;;;;5163271;27;20484;-34
2021/04/24 08:45:44;;;;;;;8.40;4.97;;;12.50;99.90;;;;;;5164572;27;20436;-35
2021/04/24 08:48:14;;;;;;;8.80;4.67;;;12.50;99.90;;;;;;5164501;27;20421;-35
2021/04/24 08:50:44;;;;;;;7.30;5.33;;;12.40;99.90;;;;;;5167076;27;20420;-37
2021/04/24 08:53:18;;;;;;;9.13;5.07;;;12.50;99.90;;;;;;5168368;27;20470;-35
2021/04/24 08:55:50;;;;;;;10.00;5.20;;;12.40;99.90;;;;;;5167761;27;20487;-35
2021/04/24 08:58:23;;;;;;;6.17;4.77;;;12.40;99.90;;;;;;5167435;27;21028;-35
2021/04/24 09:00:54;;;;;;;6.77;4.47;;;12.30;99.90;;;;;;5167967;27;20455;-33
2021/04/24 09:03:24;;;;;;;5.00;4.20;;;12.30;99.90;;;;;;5168145;27;20471;-34
2021/04/24 09:05:55;;;;;;;5.90;5.30;;;12.10;99.90;;;;;;5168103;27;20465;-34
2021/04/24 09:08:27;;;;;;;8.33;5.03;;;12.10;99.90;;;;;;5168020;27;20447;-35
2021/04/24 09:11:03;;;;;;;6.97;4.10;;;12.20;99.90;;;;;;5168376;27;20439;-35
2021/04/24 09:13:34;;;;;;;6.17;4.50;;;12.10;99.90;;;;;;5163107;27;20804;-36
2021/04/24 09:16:04;;;;;;;8.60;4.70;;;12.10;99.90;;;;;;5147223;27;20440;-35
2021/04/24 09:18:34;;;;;;;6.80;4.63;;;12.10;99.90;;;;;;5147240;27;20490;-34
2021/04/24 09:21:05;;;;;;;9.70;5.43;;;12.10;99.90;;;;;;5147584;27;20492;-36
2021/04/24 09:23:36;;;;;;;8.50;4.40;;;12.00;99.90;;;;;;5146935;27;20537;-37
2021/04/24 09:26:09;;;;;;;8.00;4.70;;;11.90;99.90;;;;;;5146930;27;20449;-37
2021/04/24 09:28:41;;;;;;;11.02;4.75;;;11.80;99.90;;;;;;5146204;27;20207;-34
2021/04/24 09:31:17;;;;;;;7.97;4.15;;;11.80;99.90;;;;;;5146966;27;20255;-37
2021/04/24 09:33:48;;;;;;;7.90;4.68;;;11.90;99.90;;;;;;5147334;27;20286;-37
2021/04/24 09:36:19;;;;;;;10.70;4.53;;;11.80;99.90;;;;;;5146672;27;20267;-34
2021/04/24 09:38:52;;;;;;;9.40;4.13;;;11.80;99.90;;;;;;5146903;27;20457;-35
2021/04/24 09:41:25;;;;;;;8.45;4.63;;;11.80;99.90;;;;;;5145920;27;20440;-39
2021/04/24 09:44:02;;;;;;;7.13;5.05;;;11.70;99.90;;;;;;5161639;27;20234;-37
2021/04/24 09:47:10;;;;;;;6.27;3.90;;;11.70;99.90;;;;;;5167184;27;20719;-36
2021/04/24 09:49:41;;;;;;;7.78;5.30;;;11.70;99.90;;;;;;5167206;27;20503;-37
2021/04/24 09:52:11;;;;;;;7.80;4.25;;;11.70;99.90;;;;;;5167202;27;20186;-35
2021/04/24 09:54:45;;;;;;;8.82;4.45;;;11.70;99.90;;;;;;5167853;27;20190;-35
2021/04/24 09:57:20;;;;;;;6.90;4.20;;;11.70;99.90;;;;;;5166159;27;20661;-35
2021/04/24 09:59:54;;;;;;;9.43;4.78;;;11.60;99.90;;;;;;5167251;27;20206;-35
2021/04/24 10:02:32;;;;;;;7.57;4.37;;;11.50;99.90;;;;;;5167056;27;20197;-35
2021/04/24 10:05:10;;;;;;;7.25;4.55;;;11.50;99.90;;;;;;5167105;27;20483;-37
2021/04/24 10:07:42;;;;;;;6.63;3.97;;;11.50;99.90;;;;;;5166879;27;20258;-34
2021/04/24 10:10:14;;;;;;;4.00;3.70;;;11.50;99.90;;;;;;5167321;27;20424;-38
2021/04/24 10:12:57;;;;;;;6.87;4.20;;;11.40;99.90;;;;;;5166487;27;20453;-35
2021/04/24 10:15:37;;;;;;;7.63;4.90;;;11.40;99.90;;;;;;5146456;27;20474;-36
2021/04/24 10:18:09;;;;;;;7.20;3.72;;;11.40;99.90;;;;;;5145966;27;20248;-33
2021/04/24 10:20:39;;;;;;;6.93;4.40;;;11.40;99.90;;;;;;5146138;27;20203;-37
2021/04/24 10:23:12;;;;;;;6.85;3.92;;;11.30;99.90;;;;;;5145633;27;20266;-38
2021/04/24 10:25:43;;;;;;;7.00;4.90;;;11.30;99.90;;;;;;5145790;27;20191;-36
2021/04/24 10:28:16;;;;;;;7.63;3.63;;;11.30;99.90;;;;;;5145096;27;20191;-39
2021/04/24 10:30:47;;;;;;;7.68;3.70;;;11.40;99.90;;;;;;5145913;27;20215;-38
2021/04/24 10:33:22;;;;;;;5.43;3.43;;;11.30;99.90;;;;;;5145349;27;20217;-33
2021/04/24 10:35:52;;;;;;;7.88;4.07;;;11.30;99.90;;;;;;5145574;27;20455;-37
2021/04/24 10:38:23;;;;;;;6.70;4.28;;;11.30;99.90;;;;;;5145597;27;20207;-37
2021/04/24 10:40:53;;;;;;;6.25;4.25;;;11.30;99.90;;;;;;5145034;27;20283;-33
2021/04/24 10:43:24;;;;;;;8.70;4.03;;;11.30;99.90;;;;;;5155043;27;20342;-35
2021/04/24 10:46:27;;;;;;;6.70;4.20;;;11.30;99.90;;;;;;5166044;27;20493;-36
2021/04/24 10:49:17;;;;;;;6.07;3.53;;;11.30;99.90;;;;;;5166036;27;20440;-36
2021/04/24 10:52:08;;;;;;;4.93;3.80;;;11.40;99.90;;;;;;5165660;27;20222;-37
2021/04/24 10:54:40;;;;;;;6.57;3.83;;;11.40;99.90;;;;;;5165855;27;20285;-37
2021/04/24 10:57:44;;;;;;;6.18;3.50;;;11.30;99.90;;;;;;5165072;27;20203;-36
2021/04/24 11:00:17;;;;;;;4.40;3.80;;;11.40;99.90;;;;;;5081353;28;20324;-37
2021/04/24 11:02:48;;;;;;;10.57;4.00;;;11.30;99.90;;;;;;5081200;28;20212;-37
2021/04/24 11:05:29;;;;;;;8.38;3.63;;;11.20;99.90;;;;;;5081501;28;20240;-37
2021/04/24 11:08:24;;;;;;;8.77;4.20;;;11.30;99.90;;;;;;5081556;28;20205;-38
2021/04/24 11:10:59;;;;;;;5.10;4.07;;;11.30;99.90;;;;;;5081301;28;20200;-38
2021/04/24 11:13:32;;;;;;;9.13;4.20;;;11.30;99.90;;;;;;5076711;28;20205;-38
2021/04/24 11:16:04;;;;;;;11.73;4.05;;;11.30;99.90;;;;;;5061326;28;20206;-39
2021/04/24 11:18:36;;;;;;;4.85;3.88;;;11.30;99.90;;;;;;5061103;28;20201;-36
2021/04/24 11:21:08;;;;;;;6.85;3.85;;;11.30;99.90;;;;;;5061064;28;20763;-34
2021/04/24 11:23:52;;;;;;;8.85;4.15;;;11.20;99.90;;;;;;5060763;28;20248;-35
2021/04/24 11:26:26;;;;;;;4.45;3.70;;;11.10;99.90;;;;;;5059996;28;20208;-37
2021/04/24 11:29:12;;;;;;;7.93;4.20;;;11.20;99.90;;;;;;5061464;28;20206;-33
2021/04/24 11:32:05;;;;;;;7.50;4.17;;;11.10;99.90;;;;;;5060316;28;20231;-32
2021/04/24 11:34:48;;;;;;;6.05;3.50;;;11.20;99.90;;;;;;5061084;28;20448;-36
2021/04/24 11:37:35;;;;;;;8.10;4.15;;;11.10;99.90;;;;;;5144398;27;20225;-38
2021/04/24 11:40:25;;;;;;;6.15;3.50;;;11.20;99.90;;;;;;5144408;27;20230;-37
2021/04/24 11:42:59;;;;;;;7.22;4.63;;;11.20;99.90;;;;;;5143459;27;20221;-38
2021/04/24 11:46:05;;;;;;;5.97;4.07;;;11.00;99.90;;;;;;5144299;27;20234;-37
2021/04/24 11:49:05;;;;;;;5.65;3.85;;;11.00;99.90;;;;;;5144082;28;20206;-38
2021/04/24 11:51:38;;;;;;;5.28;3.60;;;11.00;99.90;;;;;;5143913;28;20203;-36
2021/04/24 11:54:09;;;;;;;8.90;4.47;;;11.00;99.90;;;;;;5144407;28;20199;-36
2021/04/24 11:56:40;;;;;;;6.45;4.93;;;10.80;99.90;;;;;;5145170;27;20202;-38
2021/04/24 11:59:10;;;;;;;8.60;5.25;;;10.80;99.90;;;;;;5165360;27;20190;-38
2021/04/24 12:01:40;;;;;;;6.65;4.20;;;10.80;99.90;;;;;;5164509;27;20210;-36
2021/04/24 12:04:26;;;;;;;7.80;4.38;;;10.80;99.90;;;;;;5149326;27;20309;-35
2021/04/24 12:07:07;;;;;;;5.57;4.55;;;10.60;99.90;;;;;;5144166;28;20203;-34
2021/04/24 12:09:52;;;;;;;7.55;4.40;;;10.60;99.90;;;;;;5144460;28;20214;-37
2021/04/24 12:12:30;;;;;;;6.50;4.57;;;10.60;99.90;;;;;;5142998;28;20198;-37
2021/04/24 12:15:08;;;;;;;7.60;4.45;;;10.60;99.90;;;;;;5143972;28;20203;-36
2021/04/24 12:17:47;;;;;;;9.45;4.90;;;10.70;99.90;;;;;;5143778;28;20258;-35
2021/04/24 12:20:26;;;;;;;6.80;3.95;;;10.60;99.90;;;;;;5144358;28;20202;-38
2021/04/24 12:22:57;;;;;;;6.10;5.10;;;10.60;99.90;;;;;;5143751;28;20211;-37
2021/04/24 12:25:29;;;;;;;5.63;4.32;;;10.60;99.90;;;;;;5145807;27;20517;-34
2021/04/24 12:28:02;;;;;;;10.55;4.88;;;10.60;99.90;;;;;;5146799;27;20206;-37
2021/04/24 12:30:33;;;;;;;9.30;4.65;;;10.50;99.90;;;;;;5147837;27;20199;-38
2021/04/24 12:33:10;;;;;;;8.60;5.38;;;10.40;99.90;;;;;;5147561;27;20271;-37
2021/04/24 12:35:43;;;;;;;9.10;4.70;;;10.40;99.90;;;;;;5155668;27;20203;-38
2021/04/24 12:38:14;;;;;;;8.60;4.82;;;10.30;99.90;;;;;;5168324;27;20266;-36
2021/04/24 12:40:46;;;;;;;8.88;5.25;;;10.30;99.90;;;;;;5168472;27;20223;-37
2021/04/24 12:43:18;;;;;;;9.68;4.50;;;10.30;99.90;;;;;;5166884;27;20226;-36
2021/04/24 12:45:50;;;;;;;9.65;5.90;;;10.40;99.90;;;;;;5168218;27;20214;-37
2021/04/24 12:48:22;;;;;;;10.32;5.50;;;10.40;99.90;;;;;;5168141;27;20194;-37
2021/04/24 12:50:55;;;;;;;9.55;4.75;;;10.40;99.90;;;;;;5168639;27;20193;-36
2021/04/24 12:53:33;;;;;;;8.60;5.40;;;10.40;99.90;;;;;;5167686;27;20206;-36
2021/04/24 12:56:05;;;;;;;11.20;5.25;;;10.30;99.90;;;;;;5168076;27;20202;-33
2021/04/24 12:58:37;;;;;;;8.40;5.28;;;10.30;99.90;;;;;;5167311;27;20279;-38
2021/04/24 13:01:11;;;;;;;11.13;5.70;;;10.20;99.90;;;;;;5167981;27;20206;-35
2021/04/24 13:03:43;;;;;;;12.13;5.63;;;10.20;99.90;;;;;;5167562;27;20201;-40
2021/04/24 13:06:18;;;;;;;12.45;6.45;;;10.20;99.90;;;;;;5168236;27;20187;-36
2021/04/24 13:09:01;;;;;;;11.38;6.53;;;10.20;99.90;;;;;;5168222;27;20206;-38
2021/04/24 13:11:40;;;;;;;11.48;6.18;;;10.10;99.90;;;;;;5166586;27;20210;-34